createdAt,value
2023-04-18T00:01:59.238Z,5.90
2023-04-18T00:04:26.214Z,5.90
2023-04-18T00:06:53.029Z,5.70
2023-04-18T00:09:22.574Z,5.80
2023-04-18T00:11:52.676Z,5.90
2023-04-18T00:14:19.618Z,5.80
2023-04-18T00:16:48.830Z,5.80
2023-04-18T00:19:19.594Z,5.60
2023-04-18T00:21:52.044Z,5.60
2023-04-18T00:24:18.832Z,5.50
2023-04-18T00:26:48.699Z,5.40
2023-04-18T00:29:18.050Z,5.50
2023-04-18T00:31:44.939Z,5.40
2023-04-18T00:34:12.170Z,5.40
2023-04-18T00:36:40.347Z,5.40
2023-04-18T00:39:07.203Z,5.40
2023-04-18T00:41:34.465Z,5.20
2023-04-18T00:44:01.209Z,5.20
2023-04-18T00:46:28.018Z,4.90
2023-04-18T00:48:54.911Z,4.90
2023-04-18T00:51:21.907Z,5.10
2023-04-18T00:53:50.477Z,5.00
2023-04-18T00:56:17.358Z,5.00
2023-04-18T00:58:44.312Z,4.90
2023-04-18T01:01:11.044Z,5.00
2023-04-18T01:03:37.947Z,5.00
2023-04-18T01:06:05.086Z,4.80
2023-04-18T01:08:32.240Z,4.70
2023-04-18T01:11:00.321Z,4.60
2023-04-18T01:13:27.142Z,4.70
2023-04-18T01:15:55.154Z,4.70
2023-04-18T01:18:22.101Z,4.60
2023-04-18T01:20:52.484Z,4.50
2023-04-18T01:23:20.188Z,4.30
2023-04-18T01:25:48.908Z,4.30
2023-04-18T01:28:16.921Z,4.40
2023-04-18T01:30:43.697Z,4.30
2023-04-18T01:33:10.680Z,4.30
2023-04-18T01:35:37.462Z,4.20
2023-04-18T01:38:04.220Z,4.40
2023-04-18T01:40:31.081Z,4.20
2023-04-18T01:43:04.017Z,4.20
2023-04-18T01:45:33.650Z,4.20
2023-04-18T01:48:02.531Z,4.20
2023-04-18T01:50:29.273Z,4.20
2023-04-18T01:52:58.205Z,4.10
2023-04-18T01:55:24.947Z,4.00
2023-04-18T01:58:01.791Z,4.20
2023-04-18T02:00:31.014Z,4.10
2023-04-18T02:02:58.654Z,4.00
2023-04-18T02:05:25.584Z,4.00
2023-04-18T02:07:52.315Z,4.00
2023-04-18T02:10:20.715Z,4.00
2023-04-18T02:12:47.478Z,4.00
2023-04-18T02:15:14.213Z,4.00
2023-04-18T02:17:42.467Z,3.80
2023-04-18T02:20:09.865Z,3.90
2023-04-18T02:22:37.189Z,3.90
2023-04-18T02:25:04.368Z,3.90
2023-04-18T02:27:31.155Z,3.80
2023-04-18T02:29:57.966Z,3.80
2023-04-18T02:32:24.860Z,3.80
2023-04-18T02:34:53.031Z,3.80
2023-04-18T02:37:19.827Z,3.90
2023-04-18T02:39:46.569Z,3.70
2023-04-18T02:42:13.317Z,3.70
2023-04-18T02:44:40.037Z,3.60
2023-04-18T02:47:06.725Z,3.60
2023-04-18T02:49:33.565Z,3.60
2023-04-18T02:52:01.881Z,3.50
2023-04-18T02:54:28.728Z,3.60
2023-04-18T02:56:58.322Z,3.50
2023-04-18T02:59:27.862Z,3.60
2023-04-18T03:01:57.364Z,3.50
2023-04-18T03:04:24.544Z,3.40
2023-04-18T03:06:56.893Z,3.40
2023-04-18T03:09:27.799Z,3.30
2023-04-18T03:11:54.850Z,3.30
2023-04-18T03:14:21.783Z,3.20
2023-04-18T03:16:48.681Z,3.20
2023-04-18T03:19:15.433Z,3.30
2023-04-18T03:21:42.395Z,3.30
2023-04-18T03:24:11.582Z,3.20
2023-04-18T03:26:41.599Z,3.20
2023-04-18T03:29:08.442Z,3.20
2023-04-18T03:31:42.533Z,3.20
2023-04-18T03:34:09.357Z,3.10
2023-04-18T03:36:36.220Z,3.10
2023-04-18T03:39:03.019Z,3.00
2023-04-18T03:41:29.704Z,3.00
2023-04-18T03:43:57.743Z,3.10
2023-04-18T03:46:24.648Z,3.10
2023-04-18T03:48:51.508Z,3.20
2023-04-18T03:51:18.285Z,3.10
2023-04-18T03:53:45.009Z,3.10
2023-04-18T03:56:12.044Z,3.00
2023-04-18T03:58:38.803Z,3.00
2023-04-18T04:01:06.975Z,2.90
2023-04-18T04:03:33.801Z,2.90
2023-04-18T04:06:00.746Z,3.00
2023-04-18T04:08:28.290Z,2.80
2023-04-18T04:10:55.387Z,2.90
2023-04-18T04:13:22.155Z,2.90
2023-04-18T04:15:51.560Z,2.80
2023-04-18T04:18:19.701Z,2.90
2023-04-18T04:20:46.468Z,3.00
2023-04-18T04:23:13.253Z,3.10
2023-04-18T04:25:40.042Z,3.10
2023-04-18T04:28:07.107Z,3.10
2023-04-18T04:30:33.870Z,3.10
2023-04-18T04:33:00.669Z,3.20
2023-04-18T04:35:29.314Z,3.20
2023-04-18T04:39:50.139Z,3.30
2023-04-18T04:42:19.922Z,3.40
2023-04-18T04:44:46.786Z,3.50
2023-04-18T04:47:13.603Z,3.50
2023-04-18T04:49:40.320Z,3.60
2023-04-18T04:52:07.040Z,3.60
2023-04-18T04:54:33.770Z,3.70
2023-04-18T04:57:01.901Z,3.80
2023-04-18T04:59:28.634Z,3.80
2023-04-18T05:01:55.391Z,3.90
2023-04-18T05:04:22.337Z,3.90
2023-04-18T05:06:49.210Z,3.80
2023-04-18T05:09:15.951Z,3.90
2023-04-18T05:11:42.691Z,4.00
2023-04-18T05:14:10.876Z,4.00
2023-04-18T05:16:37.737Z,3.90
2023-04-18T05:19:06.452Z,4.00
2023-04-18T05:21:33.176Z,4.00
2023-04-18T05:23:59.922Z,3.90
2023-04-18T05:26:27.932Z,4.00
2023-04-18T05:28:54.969Z,4.00
2023-04-18T05:31:40.657Z,4.10
2023-04-18T05:34:07.504Z,4.10
2023-04-18T05:36:34.499Z,4.20
2023-04-18T05:39:01.614Z,4.30
2023-04-18T05:41:28.478Z,4.40
2023-04-18T05:44:04.900Z,4.40
2023-04-18T05:46:46.947Z,4.50
2023-04-18T05:49:13.790Z,4.60
2023-04-18T05:51:40.633Z,4.70
2023-04-18T05:54:07.391Z,4.80
2023-04-18T05:56:39.280Z,5.00
2023-04-18T05:59:06.035Z,5.00
2023-04-18T06:01:32.956Z,5.20
2023-04-18T06:04:01.200Z,5.20
2023-04-18T06:06:28.148Z,5.20
2023-04-18T06:08:54.892Z,5.20
2023-04-18T06:11:23.883Z,5.30
2023-04-18T06:13:50.484Z,5.30
2023-04-18T06:16:17.557Z,5.40
2023-04-18T06:18:47.634Z,5.40
2023-04-18T06:21:15.805Z,5.50
2023-04-18T06:23:42.814Z,5.50
2023-04-18T06:26:12.319Z,5.60
2023-04-18T06:28:39.121Z,5.70
2023-04-18T06:31:05.945Z,6.00
2023-04-18T06:33:33.456Z,6.00
2023-04-18T06:36:00.249Z,5.90
2023-04-18T06:38:28.431Z,5.90
2023-04-18T06:40:55.150Z,5.90
2023-04-18T06:43:21.958Z,6.10
2023-04-18T06:45:48.769Z,5.80
2023-04-18T06:48:15.814Z,5.70
2023-04-18T06:50:44.969Z,5.70
2023-04-18T06:53:14.179Z,5.90
2023-04-18T06:55:45.143Z,6.20
2023-04-18T06:58:15.459Z,6.30
2023-04-18T07:00:42.603Z,7.30
2023-04-18T07:03:11.256Z,6.70
2023-04-18T07:05:38.825Z,7.30
2023-04-18T07:08:05.715Z,8.00
2023-04-18T07:10:32.528Z,6.80
2023-04-18T07:13:00.584Z,8.20
2023-04-18T07:15:27.406Z,8.10
2023-04-18T07:17:54.208Z,8.30
2023-04-18T07:20:21.145Z,8.30
2023-04-18T07:22:48.380Z,8.00
2023-04-18T07:25:16.635Z,8.40
2023-04-18T07:27:43.432Z,8.30
2023-04-18T07:30:12.435Z,7.90
2023-04-18T07:32:39.156Z,8.30
2023-04-18T07:35:06.450Z,7.70
2023-04-18T07:37:33.459Z,8.00
2023-04-18T07:40:00.229Z,8.50
2023-04-18T07:42:27.114Z,8.60
2023-04-18T07:44:56.917Z,8.60
2023-04-18T07:47:28.189Z,8.50
2023-04-18T07:49:56.307Z,8.10
2023-04-18T07:52:23.302Z,7.80
2023-04-18T07:54:50.546Z,8.10
2023-04-18T07:57:17.648Z,8.30
2023-04-18T07:59:44.384Z,7.90
2023-04-18T08:02:11.209Z,8.10
2023-04-18T08:04:39.586Z,8.50
2023-04-18T08:07:06.474Z,8.70
2023-04-18T08:09:33.233Z,8.30
2023-04-18T08:12:00.092Z,8.10
2023-04-18T08:14:26.840Z,8.70
2023-04-18T08:16:53.595Z,8.60
2023-04-18T08:19:23.513Z,8.30
2023-04-18T08:21:53.845Z,8.10
2023-04-18T08:24:20.780Z,8.30
2023-04-18T08:26:47.595Z,8.30
2023-04-18T08:29:14.606Z,7.90
2023-04-18T08:31:41.600Z,8.10
2023-04-18T08:34:08.384Z,8.70
2023-04-18T08:36:35.332Z,8.50
2023-04-18T08:39:03.454Z,8.30
2023-04-18T08:41:35.954Z,8.00
2023-04-18T08:44:08.140Z,8.00
2023-04-18T08:46:35.151Z,8.30
2023-04-18T08:49:04.223Z,8.70
2023-04-18T08:51:32.531Z,9.00
2023-04-18T08:54:00.047Z,9.30
2023-04-18T08:56:30.051Z,9.90
2023-04-18T08:59:01.440Z,9.80
2023-04-18T09:01:51.197Z,9.40
2023-04-18T09:04:34.510Z,9.80
2023-04-18T09:07:01.539Z,9.70
2023-04-18T09:09:28.335Z,8.90
2023-04-18T09:12:07.689Z,8.90
2023-04-18T09:14:36.870Z,9.10
2023-04-18T09:17:04.993Z,8.90
2023-04-18T09:19:32.163Z,9.40
2023-04-18T09:22:00.970Z,9.20
2023-04-18T09:24:31.883Z,9.90
2023-04-18T09:27:02.087Z,9.10
2023-04-18T09:29:45.601Z,9.60
2023-04-18T09:32:22.012Z,10.20
2023-04-18T09:34:48.925Z,10.10
2023-04-18T09:37:15.985Z,9.90
2023-04-18T09:39:44.201Z,9.50
2023-04-18T09:42:12.519Z,9.20
2023-04-18T09:45:00.277Z,9.10
2023-04-18T09:47:28.444Z,9.20
2023-04-18T09:49:59.788Z,9.00
2023-04-18T09:52:31.969Z,8.80
2023-04-18T09:55:02.755Z,9.20
2023-04-18T09:57:31.567Z,8.50
2023-04-18T10:00:08.848Z,8.60
2023-04-18T10:02:47.911Z,8.90
2023-04-18T10:05:15.108Z,9.30
2023-04-18T10:07:43.777Z,9.20
2023-04-18T10:10:11.146Z,9.60
2023-04-18T10:12:38.587Z,9.70
2023-04-18T10:15:08.763Z,9.70
2023-04-18T10:17:52.513Z,10.10
2023-04-18T10:20:29.398Z,10.20
2023-04-18T10:22:59.024Z,9.10
2023-04-18T10:25:50.234Z,9.00
2023-04-18T10:28:17.546Z,9.10
2023-04-18T10:30:54.193Z,9.00
2023-04-18T10:33:30.512Z,9.60
2023-04-18T10:36:00.018Z,9.40
2023-04-18T10:38:36.493Z,9.30
2023-04-18T10:41:24.194Z,9.90
2023-04-18T10:44:19.304Z,9.70
2023-04-18T10:47:33.212Z,10.40
2023-04-18T10:50:05.927Z,9.50
2023-04-18T10:52:33.464Z,9.40
2023-04-18T10:55:17.035Z,9.20
2023-04-18T10:57:45.161Z,8.90
2023-04-18T11:00:14.320Z,9.10
2023-04-18T11:02:48.578Z,9.10
2023-04-18T11:05:24.659Z,9.20
2023-04-18T11:07:51.675Z,9.20
2023-04-18T11:10:19.846Z,8.90
2023-04-18T11:12:48.452Z,9.10
2023-04-18T11:15:17.423Z,8.90
2023-04-18T11:17:44.760Z,9.20
2023-04-18T11:20:13.356Z,9.20
2023-04-18T11:22:49.276Z,9.10
2023-04-18T11:25:16.695Z,9.00
2023-04-18T11:27:44.367Z,8.90
2023-04-18T11:30:11.961Z,9.00
2023-04-18T11:32:39.246Z,9.00
2023-04-18T11:35:08.968Z,9.00
2023-04-18T11:37:36.064Z,8.90
2023-04-18T11:40:05.749Z,8.80
2023-04-18T11:42:33.480Z,9.10
2023-04-18T11:45:00.252Z,9.10
2023-04-18T11:47:28.844Z,9.00
2023-04-18T11:49:57.276Z,9.40
2023-04-18T11:52:24.782Z,9.70
2023-04-18T11:54:51.717Z,9.60
2023-04-18T11:57:21.918Z,9.60
2023-04-18T11:59:50.252Z,9.90
2023-04-18T12:02:17.356Z,9.40
2023-04-18T12:04:52.020Z,9.50
2023-04-18T12:07:33.484Z,9.60
2023-04-18T12:10:00.380Z,9.20
2023-04-18T12:12:28.470Z,8.90
2023-04-18T12:15:02.598Z,8.80
2023-04-18T12:17:31.475Z,9.00
2023-04-18T12:20:01.958Z,8.90
2023-04-18T12:22:39.833Z,9.20
2023-04-18T12:25:14.821Z,9.60
2023-04-18T12:27:54.182Z,10.10
2023-04-18T12:30:22.403Z,9.90
2023-04-18T12:32:50.977Z,10.10
2023-04-18T12:35:18.606Z,10.10
2023-04-18T12:37:46.112Z,9.80
2023-04-18T12:40:13.258Z,9.90
2023-04-18T12:42:40.219Z,9.70
2023-04-18T12:45:10.378Z,9.90
2023-04-18T12:47:38.392Z,10.20
2023-04-18T12:50:07.290Z,10.00
2023-04-18T12:52:37.162Z,10.20
2023-04-18T12:55:06.661Z,10.30
2023-04-18T12:57:33.569Z,10.50
2023-04-18T13:00:00.328Z,10.80
2023-04-18T13:02:28.538Z,11.30
2023-04-18T13:04:55.901Z,11.10
2023-04-18T13:07:22.690Z,10.70
2023-04-18T13:09:49.480Z,11.00
2023-04-18T13:12:16.334Z,10.90
2023-04-18T13:14:43.121Z,11.50
2023-04-18T13:17:09.861Z,11.70
2023-04-18T13:19:37.884Z,11.40
2023-04-18T13:22:04.613Z,11.50
2023-04-18T13:24:31.493Z,11.40
2023-04-18T13:26:58.870Z,11.30
2023-04-18T13:29:27.155Z,11.30
2023-04-18T13:31:53.964Z,11.70
2023-04-18T13:34:20.682Z,11.90
2023-04-18T13:36:48.902Z,11.60
2023-04-18T13:39:16.594Z,11.30
2023-04-18T13:41:44.763Z,11.10
2023-04-18T13:44:11.500Z,10.90
2023-04-18T13:46:38.343Z,10.80
2023-04-18T13:49:05.060Z,10.70
2023-04-18T13:51:33.261Z,10.70
2023-04-18T13:54:01.408Z,10.50
2023-04-18T13:56:28.490Z,10.50
2023-04-18T13:58:55.846Z,10.60
2023-04-18T14:01:22.775Z,10.80
2023-04-18T14:03:49.717Z,10.60
2023-04-18T14:06:16.896Z,10.70
2023-04-18T14:08:44.104Z,10.60
2023-04-18T14:11:12.250Z,10.60
2023-04-18T14:13:39.017Z,10.60
2023-04-18T14:16:08.411Z,10.70
2023-04-18T14:18:35.310Z,10.90
2023-04-18T14:21:02.079Z,10.90
2023-04-18T14:23:34.220Z,11.00
2023-04-18T14:26:05.540Z,11.10
2023-04-18T14:28:33.640Z,11.10
2023-04-18T14:31:00.439Z,10.70
2023-04-18T14:33:27.363Z,10.90
2023-04-18T14:35:54.379Z,11.30
2023-04-18T14:38:21.158Z,11.80
2023-04-18T14:40:47.900Z,12.30
2023-04-18T14:43:14.688Z,12.50
2023-04-18T14:45:42.807Z,12.40
2023-04-18T14:48:10.317Z,12.20
2023-04-18T14:50:37.239Z,11.50
2023-04-18T14:53:04.098Z,11.30
2023-04-18T14:55:30.951Z,11.20
2023-04-18T14:57:57.721Z,11.40
2023-04-18T15:00:24.889Z,11.50
2023-04-18T15:02:53.396Z,11.90
2023-04-18T15:05:20.826Z,12.10
2023-04-18T15:07:47.557Z,12.10
2023-04-18T15:10:14.298Z,12.30
2023-04-18T15:12:42.604Z,12.00
2023-04-18T15:15:10.105Z,11.80
2023-04-18T15:17:36.838Z,11.70
2023-04-18T15:20:06.087Z,11.60
2023-04-18T15:22:36.049Z,11.40
2023-04-18T15:25:03.049Z,11.40
2023-04-18T15:27:29.810Z,11.40
2023-04-18T15:29:56.575Z,11.50
2023-04-18T15:32:23.470Z,11.50
2023-04-18T15:34:50.414Z,11.40
2023-04-18T15:37:24.522Z,11.40
2023-04-18T15:39:58.809Z,11.20
2023-04-18T15:42:25.580Z,11.10
2023-04-18T15:44:52.731Z,10.90
2023-04-18T15:47:19.496Z,10.80
2023-04-18T15:49:46.239Z,11.10
2023-04-18T15:52:13.017Z,11.40
2023-04-18T15:54:42.254Z,11.60
2023-04-18T15:57:09.210Z,11.90
2023-04-18T15:59:36.045Z,11.70
2023-04-18T16:02:03.237Z,11.80
2023-04-18T16:04:30.163Z,11.50
2023-04-18T16:06:56.881Z,11.50
2023-04-18T16:09:23.932Z,11.50
2023-04-18T16:11:53.053Z,11.20
2023-04-18T16:14:19.798Z,11.10
2023-04-18T16:16:46.558Z,11.10
2023-04-18T16:19:13.302Z,11.10
2023-04-18T16:21:40.066Z,11.20
2023-04-18T16:24:07.322Z,11.10
2023-04-18T16:26:34.097Z,11.10
2023-04-18T16:29:02.208Z,11.10
2023-04-18T16:31:29.133Z,11.10
2023-04-18T16:33:58.016Z,11.10
2023-04-18T16:36:25.053Z,11.30
2023-04-18T16:38:51.937Z,11.50
2023-04-18T16:41:19.056Z,11.70
2023-04-18T16:43:45.892Z,11.70
2023-04-18T16:46:14.318Z,11.40
2023-04-18T16:48:41.304Z,11.00
2023-04-18T16:51:08.537Z,10.90
2023-04-18T16:53:35.352Z,10.80
2023-04-18T16:56:02.112Z,10.70
2023-04-18T16:58:30.184Z,10.70
2023-04-18T17:00:57.084Z,10.80
2023-04-18T17:03:34.538Z,10.80
2023-04-18T17:06:01.645Z,10.90
2023-04-18T17:08:28.679Z,11.00
2023-04-18T17:10:55.618Z,11.20
2023-04-18T17:13:22.461Z,11.20
2023-04-18T17:15:52.117Z,11.10
2023-04-18T17:18:19.225Z,11.00
2023-04-18T17:20:47.524Z,10.90
2023-04-18T17:23:14.436Z,10.80
2023-04-18T17:25:43.468Z,10.70
2023-04-18T17:28:10.196Z,10.70
2023-04-18T17:30:42.174Z,10.70
2023-04-18T17:33:10.560Z,10.70
2023-04-18T17:35:39.724Z,10.70
2023-04-18T17:38:12.738Z,10.60
2023-04-18T17:40:40.716Z,10.60
2023-04-18T17:43:07.571Z,10.50
2023-04-18T17:45:35.622Z,10.50
2023-04-18T17:48:02.459Z,10.40
2023-04-18T17:50:30.700Z,10.40
2023-04-18T17:52:57.452Z,10.30
2023-04-18T17:55:25.800Z,10.20
2023-04-18T17:57:52.649Z,10.30
2023-04-18T18:00:22.389Z,10.20
2023-04-18T18:02:49.275Z,10.20
2023-04-18T18:07:50.577Z,10.00
2023-04-18T18:10:18.180Z,9.90
2023-04-18T18:12:46.260Z,9.90
2023-04-18T18:15:13.082Z,9.70
2023-04-18T18:17:39.936Z,9.70
2023-04-18T18:20:08.664Z,9.60
2023-04-18T18:22:35.420Z,9.60
2023-04-18T18:25:02.921Z,9.40
2023-04-18T18:27:29.657Z,9.30
2023-04-18T18:29:57.702Z,9.20
2023-04-18T18:32:24.574Z,9.20
2023-04-18T18:34:51.329Z,9.10
2023-04-18T18:37:18.126Z,9.00
2023-04-18T18:39:44.906Z,9.00
2023-04-18T18:42:11.632Z,8.90
2023-04-18T18:44:38.363Z,8.70
2023-04-18T18:47:06.586Z,8.70
2023-04-18T18:49:33.335Z,8.60
2023-04-18T18:52:00.058Z,8.50
2023-04-18T18:54:26.769Z,8.30
2023-04-18T18:56:53.475Z,8.10
2023-04-18T18:59:20.210Z,8.00
2023-04-18T19:01:47.078Z,8.00
2023-04-18T19:04:15.418Z,8.00
2023-04-18T19:06:42.310Z,7.80
2023-04-18T19:09:09.091Z,7.80
2023-04-18T19:11:35.815Z,7.90
2023-04-18T19:14:02.585Z,8.00
2023-04-18T19:16:29.474Z,7.90
2023-04-18T19:18:56.234Z,7.80
2023-04-18T19:21:24.340Z,7.80
2023-04-18T19:23:51.091Z,7.70
2023-04-18T19:26:17.840Z,7.70
2023-04-18T19:28:45.280Z,7.90
2023-04-18T19:31:12.101Z,7.80
2023-04-18T19:33:38.983Z,7.90
2023-04-18T19:36:06.073Z,8.10
2023-04-18T19:38:34.133Z,8.10
2023-04-18T19:41:00.873Z,8.20
2023-04-18T19:43:29.487Z,8.10
2023-04-18T19:45:56.331Z,8.00
2023-04-18T19:48:23.117Z,7.90
2023-04-18T19:50:49.848Z,8.00
2023-04-18T19:53:16.827Z,7.90
2023-04-18T19:55:45.909Z,7.90
2023-04-18T19:58:32.361Z,7.70
2023-04-18T20:00:59.112Z,7.70
2023-04-18T20:03:26.100Z,7.70
2023-04-18T20:05:53.108Z,7.80
2023-04-18T20:08:19.856Z,8.00
2023-04-18T20:10:47.897Z,8.00
2023-04-18T20:13:14.642Z,8.00
2023-04-18T20:15:41.358Z,8.10
2023-04-18T20:18:08.150Z,8.10
2023-04-18T20:20:34.949Z,8.00
2023-04-18T20:23:01.765Z,7.90
2023-04-18T20:25:28.605Z,7.90
2023-04-18T20:27:56.703Z,7.80
2023-04-18T20:30:23.691Z,7.70
2023-04-18T20:32:50.498Z,7.60
2023-04-18T20:35:17.419Z,7.60
2023-04-18T20:37:44.103Z,7.60
2023-04-18T20:40:11.055Z,7.60
2023-04-18T20:42:37.998Z,7.70
2023-04-18T20:45:07.121Z,7.70
2023-04-18T20:47:33.962Z,7.80
2023-04-18T20:50:00.739Z,7.80
2023-04-18T20:52:27.486Z,8.00
2023-04-18T20:54:54.349Z,7.90
2023-04-18T20:57:21.097Z,7.70
2023-04-18T20:59:47.846Z,7.80
2023-04-18T21:02:18.936Z,7.60
2023-04-18T21:04:45.706Z,7.70
2023-04-18T21:07:12.567Z,7.70
2023-04-18T21:09:39.294Z,7.60
2023-04-18T21:12:06.587Z,7.70
2023-04-18T21:14:33.317Z,7.70
2023-04-18T21:17:00.258Z,7.60
2023-04-18T21:19:28.407Z,7.50
2023-04-18T21:21:55.265Z,7.40
2023-04-18T21:24:21.974Z,7.50
2023-04-18T21:26:48.697Z,7.60
2023-04-18T21:29:15.488Z,7.50
2023-04-18T21:31:42.279Z,7.50
2023-04-18T21:34:09.023Z,7.50
2023-04-18T21:36:37.291Z,7.40
2023-04-18T21:39:04.175Z,7.40
2023-04-18T21:41:30.912Z,7.30
2023-04-18T21:43:57.673Z,7.30
2023-04-18T21:46:25.577Z,7.40
2023-04-18T21:48:52.400Z,7.30
2023-04-18T21:51:19.121Z,7.20
2023-04-18T21:53:47.198Z,7.30
2023-04-18T21:56:14.022Z,7.30
2023-04-18T21:58:40.759Z,7.30
2023-04-18T22:01:07.667Z,7.40
2023-04-18T22:03:34.616Z,7.20
2023-04-18T22:06:01.825Z,7.20
2023-04-18T22:08:28.770Z,7.30
2023-04-18T22:10:58.589Z,7.20
2023-04-18T22:13:27.168Z,7.20
2023-04-18T22:15:53.959Z,7.20
2023-04-18T22:18:20.654Z,7.00
2023-04-18T22:20:47.606Z,7.00
2023-04-18T22:23:14.389Z,7.00
2023-04-18T22:25:41.162Z,6.90
2023-04-18T22:28:09.243Z,6.90
2023-04-18T22:30:36.016Z,6.90
2023-04-18T22:33:02.841Z,6.80
2023-04-18T22:35:29.623Z,6.90
2023-04-18T22:37:56.402Z,6.90
2023-04-18T22:40:23.143Z,6.90
2023-04-18T22:42:49.889Z,6.80
2023-04-18T22:45:18.444Z,6.90
2023-04-18T22:47:45.255Z,6.90
2023-04-18T22:50:12.344Z,6.80
2023-04-18T22:52:39.205Z,6.90
2023-04-18T22:55:06.561Z,6.90
2023-04-18T22:57:33.313Z,6.90
2023-04-18T23:00:00.095Z,7.00
2023-04-18T23:02:28.370Z,7.00
2023-04-18T23:04:56.838Z,7.00
2023-04-18T23:07:23.568Z,7.20
2023-04-18T23:09:50.309Z,7.20
2023-04-18T23:12:17.002Z,7.40
2023-04-18T23:14:43.724Z,7.40
2023-04-18T23:17:10.437Z,7.40
2023-04-18T23:19:38.754Z,7.50
2023-04-18T23:22:05.534Z,7.50
2023-04-18T23:24:32.276Z,7.60
2023-04-18T23:26:59.013Z,7.60
2023-04-18T23:29:25.743Z,7.60
2023-04-18T23:31:52.503Z,7.70
2023-04-18T23:34:19.362Z,7.70
2023-04-18T23:36:47.440Z,7.80
2023-04-18T23:39:14.198Z,7.80
2023-04-18T23:41:40.962Z,7.80
2023-04-18T23:44:07.734Z,7.80
2023-04-18T23:46:36.361Z,7.90
2023-04-18T23:49:03.362Z,7.90
2023-04-18T23:51:30.164Z,7.90
2023-04-18T23:53:58.243Z,7.90
2023-04-18T23:56:24.978Z,7.90
2023-04-18T23:58:51.710Z,7.90
